Pennington Gap, Virginia
Current Conditions -  °F | °C
As of 7:55 AM on Tuesday 21 Oct 2014 (Local Time) from K0VG Reporting Station
Haze Haze  
Wind Chill: 46°   Ceiling: 2000
Heat Index: 46°   Visibility: 6mi
Dew Point: 46°   Wind: 0mph
Humidity: 100%   Direction: NA
Pressure: 30.01"   Gusts: NA
Location:  36.76°N, 83.03°W
Report Text: K0VG 211155Z AUTO 00000KT 6SM BR FEW002 OVC020 08/08 A3001 RMK AO2
Loading
Personal Weather Stations






























Interactive Weather Map
Tropical Storm Tracking
New forecast layout! Learn more

10-Day Weather Forecast

Advertisements
Track Severe Weather on mobile